sensor_id;sensor_type;location;lat;lon;timestamp;temperature;humidity
3067;DHT22;1544;48.834;9.194;2022-08-07T00:02:06;18.20;27.20
3067;DHT22;1544;48.834;9.194;2022-08-07T00:04:58;18.20;27.20
3067;DHT22;1544;48.834;9.194;2022-08-07T00:07:29;18.20;27.20
3067;DHT22;1544;48.834;9.194;2022-08-07T00:10:10;18.10;27.10
3067;DHT22;1544;48.834;9.194;2022-08-07T00:13:03;18.10;27.50
3067;DHT22;1544;48.834;9.194;2022-08-07T00:15:55;18.10;27.30
3067;DHT22;1544;48.834;9.194;2022-08-07T00:18:27;18.00;27.40
3067;DHT22;1544;48.834;9.194;2022-08-07T00:21:01;17.90;27.30
3067;DHT22;1544;48.834;9.194;2022-08-07T00:23:54;17.90;27.30
3067;DHT22;1544;48.834;9.194;2022-08-07T00:26:26;17.90;27.40
3067;DHT22;1544;48.834;9.194;2022-08-07T00:29:17;17.80;27.40
3067;DHT22;1544;48.834;9.194;2022-08-07T00:31:53;17.80;27.50
3067;DHT22;1544;48.834;9.194;2022-08-07T00:34:26;17.70;27.40
3067;DHT22;1544;48.834;9.194;2022-08-07T00:36:58;17.60;27.40
3067;DHT22;1544;48.834;9.194;2022-08-07T00:39:29;17.60;27.50
3067;DHT22;1544;48.834;9.194;2022-08-07T00:42:01;17.60;27.50
3067;DHT22;1544;48.834;9.194;2022-08-07T00:44:36;17.60;27.50
3067;DHT22;1544;48.834;9.194;2022-08-07T00:47:11;17.60;27.50
3067;DHT22;1544;48.834;9.194;2022-08-07T00:50:03;17.50;27.50
3067;DHT22;1544;48.834;9.194;2022-08-07T00:52:55;17.50;27.60
3067;DHT22;1544;48.834;9.194;2022-08-07T00:55:26;17.50;27.70
3067;DHT22;1544;48.834;9.194;2022-08-07T00:58:18;17.40;27.70
3067;DHT22;1544;48.834;9.194;2022-08-07T01:00:51;17.40;27.70
3067;DHT22;1544;48.834;9.194;2022-08-07T01:03:24;17.30;27.70
3067;DHT22;1544;48.834;9.194;2022-08-07T01:06:16;17.30;27.80
3067;DHT22;1544;48.834;9.194;2022-08-07T01:08:47;17.30;27.70
3067;DHT22;1544;48.834;9.194;2022-08-07T01:11:23;17.30;27.70
3067;DHT22;1544;48.834;9.194;2022-08-07T01:14:14;17.20;27.70
3067;DHT22;1544;48.834;9.194;2022-08-07T01:16:47;17.20;27.80
3067;DHT22;1544;48.834;9.194;2022-08-07T01:19:20;17.20;27.90
3067;DHT22;1544;48.834;9.194;2022-08-07T01:21:56;17.10;27.90
3067;DHT22;1544;48.834;9.194;2022-08-07T01:24:33;17.10;27.90
3067;DHT22;1544;48.834;9.194;2022-08-07T01:27:05;17.10;27.90
3067;DHT22;1544;48.834;9.194;2022-08-07T01:29:50;17.00;27.90
3067;DHT22;1544;48.834;9.194;2022-08-07T01:32:24;17.00;27.90
3067;DHT22;1544;48.834;9.194;2022-08-07T01:34:57;17.00;28.00
3067;DHT22;1544;48.834;9.194;2022-08-07T01:37:32;16.90;28.10
3067;DHT22;1544;48.834;9.194;2022-08-07T01:40:05;16.90;28.20
3067;DHT22;1544;48.834;9.194;2022-08-07T01:42:55;16.90;28.20
3067;DHT22;1544;48.834;9.194;2022-08-07T01:45:31;16.80;28.30
3067;DHT22;1544;48.834;9.194;2022-08-07T01:48:16;16.80;28.30
3067;DHT22;1544;48.834;9.194;2022-08-07T01:51:03;16.80;28.40
3067;DHT22;1544;48.834;9.194;2022-08-07T01:53:57;16.80;28.30
3067;DHT22;1544;48.834;9.194;2022-08-07T01:56:51;16.70;28.30
3067;DHT22;1544;48.834;9.194;2022-08-07T01:59:41;16.70;28.40
3067;DHT22;1544;48.834;9.194;2022-08-07T02:02:29;16.70;28.50
3067;DHT22;1544;48.834;9.194;2022-08-07T02:05:32;16.60;28.50
3067;DHT22;1544;48.834;9.194;2022-08-07T02:08:27;16.60;28.60
3067;DHT22;1544;48.834;9.194;2022-08-07T02:11:00;16.60;28.60
3067;DHT22;1544;48.834;9.194;2022-08-07T02:13:35;16.60;28.70
3067;DHT22;1544;48.834;9.194;2022-08-07T02:16:29;16.50;28.70
3067;DHT22;1544;48.834;9.194;2022-08-07T02:19:07;16.50;28.80
3067;DHT22;1544;48.834;9.194;2022-08-07T02:22:00;16.50;28.80
3067;DHT22;1544;48.834;9.194;2022-08-07T02:24:39;16.50;28.90
3067;DHT22;1544;48.834;9.194;2022-08-07T02:27:20;16.40;28.80
3067;DHT22;1544;48.834;9.194;2022-08-07T02:29:54;16.40;28.90
3067;DHT22;1544;48.834;9.194;2022-08-07T02:32:35;16.40;28.90
3067;DHT22;1544;48.834;9.194;2022-08-07T02:35:27;16.30;28.90
3067;DHT22;1544;48.834;9.194;2022-08-07T02:38:26;16.30;29.00
3067;DHT22;1544;48.834;9.194;2022-08-07T02:41:03;16.30;29.00
3067;DHT22;1544;48.834;9.194;2022-08-07T02:43:39;16.20;29.00
3067;DHT22;1544;48.834;9.194;2022-08-07T02:46:22;16.20;29.10
3067;DHT22;1544;48.834;9.194;2022-08-07T02:48:56;16.20;29.10
3067;DHT22;1544;48.834;9.194;2022-08-07T02:51:28;16.20;29.20
3067;DHT22;1544;48.834;9.194;2022-08-07T02:54:21;16.10;29.30
3067;DHT22;1544;48.834;9.194;2022-08-07T02:56:57;16.10;29.30
3067;DHT22;1544;48.834;9.194;2022-08-07T02:59:30;16.10;29.40
3067;DHT22;1544;48.834;9.194;2022-08-07T03:02:05;16.00;29.40
3067;DHT22;1544;48.834;9.194;2022-08-07T03:04:41;16.00;29.50
3067;DHT22;1544;48.834;9.194;2022-08-07T03:07:16;15.90;29.50
3067;DHT22;1544;48.834;9.194;2022-08-07T03:10:09;15.90;29.50
3067;DHT22;1544;48.834;9.194;2022-08-07T03:12:45;15.90;29.60
3067;DHT22;1544;48.834;9.194;2022-08-07T03:15:19;15.90;29.60
3067;DHT22;1544;48.834;9.194;2022-08-07T03:18:11;15.80;29.60
3067;DHT22;1544;48.834;9.194;2022-08-07T03:20:50;15.80;29.70
3067;DHT22;1544;48.834;9.194;2022-08-07T03:23:24;15.80;29.70
3067;DHT22;1544;48.834;9.194;2022-08-07T03:26:18;15.80;29.70
3067;DHT22;1544;48.834;9.194;2022-08-07T03:28:54;15.80;29.70
3067;DHT22;1544;48.834;9.194;2022-08-07T03:31:28;15.70;29.60
3067;DHT22;1544;48.834;9.194;2022-08-07T03:34:16;15.70;29.70
3067;DHT22;1544;48.834;9.194;2022-08-07T03:36:59;15.70;29.70
3067;DHT22;1544;48.834;9.194;2022-08-07T03:39:46;15.70;29.80
3067;DHT22;1544;48.834;9.194;2022-08-07T03:42:40;15.70;29.90
3067;DHT22;1544;48.834;9.194;2022-08-07T03:45:14;15.60;29.90
3067;DHT22;1544;48.834;9.194;2022-08-07T03:48:04;15.60;30.00
3067;DHT22;1544;48.834;9.194;2022-08-07T03:50:42;15.60;30.00
3067;DHT22;1544;48.834;9.194;2022-08-07T03:53:31;15.60;30.00
3067;DHT22;1544;48.834;9.194;2022-08-07T03:56:24;15.60;30.00
3067;DHT22;1544;48.834;9.194;2022-08-07T03:59:06;15.50;30.10
3067;DHT22;1544;48.834;9.194;2022-08-07T04:01:45;15.50;30.10
3067;DHT22;1544;48.834;9.194;2022-08-07T04:04:22;15.50;30.10
3067;DHT22;1544;48.834;9.194;2022-08-07T04:06:59;15.50;30.30
3067;DHT22;1544;48.834;9.194;2022-08-07T04:09:38;15.50;30.30
3067;DHT22;1544;48.834;9.194;2022-08-07T04:12:23;15.50;30.40
3067;DHT22;1544;48.834;9.194;2022-08-07T04:15:00;15.40;30.40
3067;DHT22;1544;48.834;9.194;2022-08-07T04:17:37;15.40;30.40
3067;DHT22;1544;48.834;9.194;2022-08-07T04:20:29;15.40;30.50
3067;DHT22;1544;48.834;9.194;2022-08-07T04:23:05;15.40;30.50
3067;DHT22;1544;48.834;9.194;2022-08-07T04:25:48;15.40;30.50
3067;DHT22;1544;48.834;9.194;2022-08-07T04:28:23;15.40;30.50
3067;DHT22;1544;48.834;9.194;2022-08-07T04:30:57;15.40;30.50
3067;DHT22;1544;48.834;9.194;2022-08-07T04:33:34;15.40;30.60
3067;DHT22;1544;48.834;9.194;2022-08-07T04:36:07;15.40;30.60
3067;DHT22;1544;48.834;9.194;2022-08-07T04:38:40;15.40;30.60
3067;DHT22;1544;48.834;9.194;2022-08-07T04:41:11;15.40;30.70
3067;DHT22;1544;48.834;9.194;2022-08-07T04:43:52;15.40;30.60
3067;DHT22;1544;48.834;9.194;2022-08-07T04:53:26;15.50;30.70
3067;DHT22;1544;48.834;9.194;2022-08-07T05:00:16;15.50;30.50
3067;DHT22;1544;48.834;9.194;2022-08-07T05:06:37;15.60;30.50
3067;DHT22;1544;48.834;9.194;2022-08-07T05:09:31;15.60;30.50
3067;DHT22;1544;48.834;9.194;2022-08-07T05:12:25;15.70;30.50
3067;DHT22;1544;48.834;9.194;2022-08-07T05:15:07;15.70;30.50
3067;DHT22;1544;48.834;9.194;2022-08-07T05:18:06;15.70;30.60
3067;DHT22;1544;48.834;9.194;2022-08-07T05:20:46;15.80;30.60
3067;DHT22;1544;48.834;9.194;2022-08-07T05:23:24;15.80;30.50
3067;DHT22;1544;48.834;9.194;2022-08-07T05:26:09;15.90;30.50
3067;DHT22;1544;48.834;9.194;2022-08-07T05:29:02;15.90;30.50
3067;DHT22;1544;48.834;9.194;2022-08-07T05:31:39;16.00;30.50
3067;DHT22;1544;48.834;9.194;2022-08-07T05:34:24;16.10;30.50
3067;DHT22;1544;48.834;9.194;2022-08-07T05:36:58;16.10;30.60
3067;DHT22;1544;48.834;9.194;2022-08-07T05:39:34;16.20;30.60
3067;DHT22;1544;48.834;9.194;2022-08-07T05:42:27;16.20;30.60
3067;DHT22;1544;48.834;9.194;2022-08-07T05:45:06;16.30;30.60
3067;DHT22;1544;48.834;9.194;2022-08-07T05:48:02;16.30;30.60
3067;DHT22;1544;48.834;9.194;2022-08-07T05:50:42;16.40;30.60
3067;DHT22;1544;48.834;9.194;2022-08-07T05:53:16;16.50;30.80
3067;DHT22;1544;48.834;9.194;2022-08-07T05:56:08;16.50;30.80
3067;DHT22;1544;48.834;9.194;2022-08-07T05:58:48;16.60;31.10
3067;DHT22;1544;48.834;9.194;2022-08-07T06:01:26;16.60;31.10
3067;DHT22;1544;48.834;9.194;2022-08-07T06:04:07;16.70;31.20
3067;DHT22;1544;48.834;9.194;2022-08-07T06:06:43;16.80;31.40
3067;DHT22;1544;48.834;9.194;2022-08-07T06:09:18;16.80;31.40
3067;DHT22;1544;48.834;9.194;2022-08-07T06:11:51;16.90;31.40
3067;DHT22;1544;48.834;9.194;2022-08-07T06:14:25;16.90;31.30
3067;DHT22;1544;48.834;9.194;2022-08-07T06:17:03;17.00;31.20
3067;DHT22;1544;48.834;9.194;2022-08-07T06:19:41;17.10;31.40
3067;DHT22;1544;48.834;9.194;2022-08-07T06:22:33;17.20;31.40
3067;DHT22;1544;48.834;9.194;2022-08-07T06:25:24;17.30;31.50
3067;DHT22;1544;48.834;9.194;2022-08-07T06:28:07;17.30;31.60
3067;DHT22;1544;48.834;9.194;2022-08-07T06:30:44;17.40;31.60
3067;DHT22;1544;48.834;9.194;2022-08-07T06:33:24;17.40;31.70
3067;DHT22;1544;48.834;9.194;2022-08-07T06:35:56;17.50;31.80
3067;DHT22;1544;48.834;9.194;2022-08-07T06:38:57;17.50;31.80
3067;DHT22;1544;48.834;9.194;2022-08-07T06:41:56;17.60;32.00
3067;DHT22;1544;48.834;9.194;2022-08-07T06:44:54;17.70;32.30
3067;DHT22;1544;48.834;9.194;2022-08-07T06:47:28;17.70;32.30
3067;DHT22;1544;48.834;9.194;2022-08-07T06:50:20;17.80;32.30
3067;DHT22;1544;48.834;9.194;2022-08-07T06:52:55;17.90;32.30
3067;DHT22;1544;48.834;9.194;2022-08-07T06:55:30;18.00;32.60
3067;DHT22;1544;48.834;9.194;2022-08-07T06:58:24;18.10;32.90
3067;DHT22;1544;48.834;9.194;2022-08-07T07:01:09;18.20;33.10
3067;DHT22;1544;48.834;9.194;2022-08-07T07:03:44;18.30;33.00
3067;DHT22;1544;48.834;9.194;2022-08-07T07:06:26;18.40;33.30
3067;DHT22;1544;48.834;9.194;2022-08-07T07:09:20;18.50;34.40
3067;DHT22;1544;48.834;9.194;2022-08-07T07:21:16;19.00;34.90
3067;DHT22;1544;48.834;9.194;2022-08-07T07:23:49;19.10;35.00
3067;DHT22;1544;48.834;9.194;2022-08-07T07:26:42;19.20;35.10
3067;DHT22;1544;48.834;9.194;2022-08-07T07:29:24;19.30;34.90
3067;DHT22;1544;48.834;9.194;2022-08-07T07:32:18;19.50;35.00
3067;DHT22;1544;48.834;9.194;2022-08-07T07:34:54;19.60;34.80
3067;DHT22;1544;48.834;9.194;2022-08-07T07:37:29;19.70;34.70
3067;DHT22;1544;48.834;9.194;2022-08-07T07:40:21;19.80;34.60
3067;DHT22;1544;48.834;9.194;2022-08-07T07:42:56;19.90;34.40
3067;DHT22;1544;48.834;9.194;2022-08-07T07:45:48;20.00;34.10
3067;DHT22;1544;48.834;9.194;2022-08-07T07:48:41;20.10;33.60
3067;DHT22;1544;48.834;9.194;2022-08-07T07:51:16;20.20;33.50
3067;DHT22;1544;48.834;9.194;2022-08-07T07:53:49;20.30;33.10
3067;DHT22;1544;48.834;9.194;2022-08-07T07:56:24;20.40;32.90
3067;DHT22;1544;48.834;9.194;2022-08-07T07:59:04;20.60;33.00
3067;DHT22;1544;48.834;9.194;2022-08-07T08:01:39;20.60;32.50
3067;DHT22;1544;48.834;9.194;2022-08-07T08:04:33;20.80;32.40
3067;DHT22;1544;48.834;9.194;2022-08-07T08:07:07;20.90;32.30
3067;DHT22;1544;48.834;9.194;2022-08-07T08:09:41;21.00;32.20
3067;DHT22;1544;48.834;9.194;2022-08-07T08:12:32;21.00;32.00
3067;DHT22;1544;48.834;9.194;2022-08-07T08:15:26;21.10;31.90
3067;DHT22;1544;48.834;9.194;2022-08-07T08:18:22;21.20;31.80
3067;DHT22;1544;48.834;9.194;2022-08-07T08:20:57;21.30;31.70
3067;DHT22;1544;48.834;9.194;2022-08-07T08:23:32;21.40;31.60
3067;DHT22;1544;48.834;9.194;2022-08-07T08:26:23;21.50;31.50
3067;DHT22;1544;48.834;9.194;2022-08-07T08:29:20;21.60;30.90
3067;DHT22;1544;48.834;9.194;2022-08-07T08:31:51;21.70;30.60
3067;DHT22;1544;48.834;9.194;2022-08-07T08:34:43;21.80;30.00
3067;DHT22;1544;48.834;9.194;2022-08-07T08:37:18;21.90;29.80
3067;DHT22;1544;48.834;9.194;2022-08-07T08:40:20;22.00;29.40
3067;DHT22;1544;48.834;9.194;2022-08-07T08:43:09;22.10;29.50
3067;DHT22;1544;48.834;9.194;2022-08-07T08:45:56;22.20;29.60
3067;DHT22;1544;48.834;9.194;2022-08-07T08:49:01;22.30;29.30
3067;DHT22;1544;48.834;9.194;2022-08-07T08:52:15;22.40;28.20
3067;DHT22;1544;48.834;9.194;2022-08-07T08:55:00;22.50;27.30
3067;DHT22;1544;48.834;9.194;2022-08-07T08:57:45;22.60;27.40
3067;DHT22;1544;48.834;9.194;2022-08-07T09:00:22;22.70;27.30
3067;DHT22;1544;48.834;9.194;2022-08-07T09:03:02;22.80;27.70
3067;DHT22;1544;48.834;9.194;2022-08-07T09:06:56;22.80;27.50
3067;DHT22;1544;48.834;9.194;2022-08-07T09:15:30;23.20;27.50
3067;DHT22;1544;48.834;9.194;2022-08-07T09:21:47;23.40;27.00
3067;DHT22;1544;48.834;9.194;2022-08-07T09:28:04;23.60;26.50
3067;DHT22;1544;48.834;9.194;2022-08-07T09:31:07;23.70;26.30
3067;DHT22;1544;48.834;9.194;2022-08-07T09:36:35;23.90;26.40
3067;DHT22;1544;48.834;9.194;2022-08-07T09:42:53;24.20;25.90
3067;DHT22;1544;48.834;9.194;2022-08-07T09:53:11;24.60;25.50
3067;DHT22;1544;48.834;9.194;2022-08-07T10:02:23;24.80;25.20
3067;DHT22;1544;48.834;9.194;2022-08-07T10:15:00;25.30;24.70
3067;DHT22;1544;48.834;9.194;2022-08-07T10:43:05;26.30;24.00
3067;DHT22;1544;48.834;9.194;2022-08-07T10:45:57;26.40;23.80
3067;DHT22;1544;48.834;9.194;2022-08-07T10:51:31;26.60;23.80
3067;DHT22;1544;48.834;9.194;2022-08-07T10:54:44;26.50;23.30
3067;DHT22;1544;48.834;9.194;2022-08-07T11:00:35;26.70;23.40
3067;DHT22;1544;48.834;9.194;2022-08-07T11:03:47;26.70;23.70
3067;DHT22;1544;48.834;9.194;2022-08-07T11:09:46;26.90;23.50
3067;DHT22;1544;48.834;9.194;2022-08-07T11:13:06;27.10;23.30
3067;DHT22;1544;48.834;9.194;2022-08-07T11:16:10;27.10;23.30
3067;DHT22;1544;48.834;9.194;2022-08-07T11:18:55;27.30;23.30
3067;DHT22;1544;48.834;9.194;2022-08-07T11:21:53;27.40;23.40
3067;DHT22;1544;48.834;9.194;2022-08-07T11:27:53;27.60;23.50
3067;DHT22;1544;48.834;9.194;2022-08-07T11:30:48;27.80;23.50
3067;DHT22;1544;48.834;9.194;2022-08-07T11:33:42;27.80;23.40
3067;DHT22;1544;48.834;9.194;2022-08-07T11:42:50;28.10;23.00
3067;DHT22;1544;48.834;9.194;2022-08-07T11:45:50;28.20;23.10
3067;DHT22;1544;48.834;9.194;2022-08-07T11:48:34;28.20;23.00
3067;DHT22;1544;48.834;9.194;2022-08-07T12:00:44;28.70;23.30
3067;DHT22;1544;48.834;9.194;2022-08-07T12:04:16;28.80;23.30
3067;DHT22;1544;48.834;9.194;2022-08-07T12:07:02;29.00;23.20
3067;DHT22;1544;48.834;9.194;2022-08-07T12:09:58;29.10;23.20
3067;DHT22;1544;48.834;9.194;2022-08-07T12:12:41;29.30;23.20
3067;DHT22;1544;48.834;9.194;2022-08-07T12:15:25;29.40;23.30
3067;DHT22;1544;48.834;9.194;2022-08-07T12:25:02;30.00;22.70
3067;DHT22;1544;48.834;9.194;2022-08-07T12:28:31;30.20;22.70
3067;DHT22;1544;48.834;9.194;2022-08-07T12:34:50;30.80;22.70
3067;DHT22;1544;48.834;9.194;2022-08-07T12:37:26;31.10;22.60
3067;DHT22;1544;48.834;9.194;2022-08-07T12:40:20;31.30;22.20
3067;DHT22;1544;48.834;9.194;2022-08-07T12:43:14;31.60;22.30
3067;DHT22;1544;48.834;9.194;2022-08-07T12:46:23;31.90;22.40
3067;DHT22;1544;48.834;9.194;2022-08-07T12:58:42;32.90;21.90
3067;DHT22;1544;48.834;9.194;2022-08-07T13:04:24;33.40;22.00
3067;DHT22;1544;48.834;9.194;2022-08-07T13:11:27;33.90;21.50
3067;DHT22;1544;48.834;9.194;2022-08-07T13:14:42;34.10;21.50
3067;DHT22;1544;48.834;9.194;2022-08-07T13:17:56;34.40;21.50
3067;DHT22;1544;48.834;9.194;2022-08-07T13:20:43;34.70;21.60
3067;DHT22;1544;48.834;9.194;2022-08-07T13:23:50;34.90;21.20
3067;DHT22;1544;48.834;9.194;2022-08-07T13:26:45;35.20;21.30
3067;DHT22;1544;48.834;9.194;2022-08-07T13:29:28;35.40;21.20
3067;DHT22;1544;48.834;9.194;2022-08-07T13:32:12;35.60;21.30
3067;DHT22;1544;48.834;9.194;2022-08-07T13:35:11;35.90;21.20
3067;DHT22;1544;48.834;9.194;2022-08-07T13:37:57;36.10;20.80
3067;DHT22;1544;48.834;9.194;2022-08-07T13:41:03;36.30;20.60
3067;DHT22;1544;48.834;9.194;2022-08-07T13:43:42;36.50;20.80
3067;DHT22;1544;48.834;9.194;2022-08-07T13:46:29;36.60;20.70
3067;DHT22;1544;48.834;9.194;2022-08-07T13:49:09;36.80;20.60
3067;DHT22;1544;48.834;9.194;2022-08-07T13:52:04;36.90;20.80
3067;DHT22;1544;48.834;9.194;2022-08-07T13:54:57;36.90;20.70
3067;DHT22;1544;48.834;9.194;2022-08-07T13:57:31;37.10;20.50
3067;DHT22;1544;48.834;9.194;2022-08-07T14:00:08;37.10;20.60
3067;DHT22;1544;48.834;9.194;2022-08-07T14:02:57;37.20;20.50
3067;DHT22;1544;48.834;9.194;2022-08-07T14:05:29;37.40;20.50
3067;DHT22;1544;48.834;9.194;2022-08-07T14:08:08;37.50;20.60
3067;DHT22;1544;48.834;9.194;2022-08-07T14:10:41;37.50;20.40
3067;DHT22;1544;48.834;9.194;2022-08-07T14:13:17;37.60;20.30
3067;DHT22;1544;48.834;9.194;2022-08-07T14:16:05;37.80;20.30
3067;DHT22;1544;48.834;9.194;2022-08-07T14:18:48;37.60;20.20
3067;DHT22;1544;48.834;9.194;2022-08-07T14:21:48;37.60;20.30
3067;DHT22;1544;48.834;9.194;2022-08-07T14:24:44;37.40;20.10
3067;DHT22;1544;48.834;9.194;2022-08-07T14:27:26;37.30;20.10
3067;DHT22;1544;48.834;9.194;2022-08-07T14:30:36;37.40;19.90
3067;DHT22;1544;48.834;9.194;2022-08-07T14:33:11;37.50;20.20
3067;DHT22;1544;48.834;9.194;2022-08-07T14:35:45;37.70;20.00
3067;DHT22;1544;48.834;9.194;2022-08-07T14:38:22;37.90;20.00
3067;DHT22;1544;48.834;9.194;2022-08-07T14:41:05;38.10;20.00
3067;DHT22;1544;48.834;9.194;2022-08-07T14:43:46;38.30;20.10
3067;DHT22;1544;48.834;9.194;2022-08-07T14:46:31;38.30;19.90
3067;DHT22;1544;48.834;9.194;2022-08-07T14:49:03;38.40;20.20
3067;DHT22;1544;48.834;9.194;2022-08-07T14:51:57;38.40;20.10
3067;DHT22;1544;48.834;9.194;2022-08-07T14:54:41;38.60;20.00
3067;DHT22;1544;48.834;9.194;2022-08-07T14:57:14;38.70;20.20
3067;DHT22;1544;48.834;9.194;2022-08-07T14:59:49;39.00;19.90
3067;DHT22;1544;48.834;9.194;2022-08-07T15:02:35;39.00;20.00
3067;DHT22;1544;48.834;9.194;2022-08-07T15:05:14;39.10;19.90
3067;DHT22;1544;48.834;9.194;2022-08-07T15:07:50;39.20;19.80
3067;DHT22;1544;48.834;9.194;2022-08-07T15:10:43;39.40;20.20
3067;DHT22;1544;48.834;9.194;2022-08-07T15:13:32;39.40;19.60
3067;DHT22;1544;48.834;9.194;2022-08-07T15:16:08;39.60;19.90
3067;DHT22;1544;48.834;9.194;2022-08-07T15:18:49;39.70;19.80
3067;DHT22;1544;48.834;9.194;2022-08-07T15:21:35;39.70;19.80
3067;DHT22;1544;48.834;9.194;2022-08-07T15:24:33;39.80;19.70
3067;DHT22;1544;48.834;9.194;2022-08-07T15:27:27;39.90;19.80
3067;DHT22;1544;48.834;9.194;2022-08-07T15:30:09;39.90;19.80
3067;DHT22;1544;48.834;9.194;2022-08-07T15:32:49;40.10;19.80
3067;DHT22;1544;48.834;9.194;2022-08-07T15:35:35;40.30;19.90
3067;DHT22;1544;48.834;9.194;2022-08-07T15:38:28;40.50;19.70
3067;DHT22;1544;48.834;9.194;2022-08-07T15:41:23;40.60;19.90
3067;DHT22;1544;48.834;9.194;2022-08-07T15:44:19;40.70;19.60
3067;DHT22;1544;48.834;9.194;2022-08-07T15:47:00;40.80;19.50
3067;DHT22;1544;48.834;9.194;2022-08-07T15:49:54;40.90;19.70
3067;DHT22;1544;48.834;9.194;2022-08-07T15:52:36;40.90;19.60
3067;DHT22;1544;48.834;9.194;2022-08-07T15:55:13;40.90;19.70
3067;DHT22;1544;48.834;9.194;2022-08-07T15:57:51;41.10;19.60
3067;DHT22;1544;48.834;9.194;2022-08-07T16:00:33;41.30;19.60
3067;DHT22;1544;48.834;9.194;2022-08-07T16:03:17;41.50;19.60
3067;DHT22;1544;48.834;9.194;2022-08-07T16:06:11;41.70;19.40
3067;DHT22;1544;48.834;9.194;2022-08-07T16:08:45;41.90;19.50
3067;DHT22;1544;48.834;9.194;2022-08-07T16:21:48;44.50;19.20
3067;DHT22;1544;48.834;9.194;2022-08-07T16:25:05;45.80;19.20
3067;DHT22;1544;48.834;9.194;2022-08-07T16:32:06;47.00;18.70
3067;DHT22;1544;48.834;9.194;2022-08-07T16:35:32;47.20;18.70
3067;DHT22;1544;48.834;9.194;2022-08-07T16:38:37;47.10;18.70
3067;DHT22;1544;48.834;9.194;2022-08-07T16:44:49;47.00;18.60
3067;DHT22;1544;48.834;9.194;2022-08-07T16:50:48;47.40;18.60
3067;DHT22;1544;48.834;9.194;2022-08-07T16:56:54;47.60;18.40
3067;DHT22;1544;48.834;9.194;2022-08-07T17:00:07;47.20;18.30
3067;DHT22;1544;48.834;9.194;2022-08-07T17:03:17;46.40;18.20
3067;DHT22;1544;48.834;9.194;2022-08-07T17:09:56;43.70;18.40
3067;DHT22;1544;48.834;9.194;2022-08-07T17:16:27;41.40;18.50
3067;DHT22;1544;48.834;9.194;2022-08-07T17:19:20;40.60;18.70
3067;DHT22;1544;48.834;9.194;2022-08-07T17:22:23;40.00;18.70
3067;DHT22;1544;48.834;9.194;2022-08-07T17:25:17;39.40;18.90
3067;DHT22;1544;48.834;9.194;2022-08-07T17:28:13;38.90;19.00
3067;DHT22;1544;48.834;9.194;2022-08-07T17:31:09;38.50;19.10
3067;DHT22;1544;48.834;9.194;2022-08-07T17:33:50;38.10;19.10
3067;DHT22;1544;48.834;9.194;2022-08-07T17:36:50;37.70;19.10
3067;DHT22;1544;48.834;9.194;2022-08-07T17:39:51;37.30;19.20
3067;DHT22;1544;48.834;9.194;2022-08-07T17:42:49;36.90;19.20
3067;DHT22;1544;48.834;9.194;2022-08-07T17:45:42;36.40;19.10
3067;DHT22;1544;48.834;9.194;2022-08-07T17:48:30;36.20;19.20
3067;DHT22;1544;48.834;9.194;2022-08-07T17:51:17;35.80;19.30
3067;DHT22;1544;48.834;9.194;2022-08-07T17:57:05;35.20;19.30
3067;DHT22;1544;48.834;9.194;2022-08-07T17:59:55;34.90;19.40
3067;DHT22;1544;48.834;9.194;2022-08-07T18:02:51;34.70;19.40
3067;DHT22;1544;48.834;9.194;2022-08-07T18:06:19;34.30;19.60
3067;DHT22;1544;48.834;9.194;2022-08-07T18:09:15;33.70;19.40
3067;DHT22;1544;48.834;9.194;2022-08-07T18:12:21;33.40;19.50
3067;DHT22;1544;48.834;9.194;2022-08-07T18:15:22;32.90;19.40
3067;DHT22;1544;48.834;9.194;2022-08-07T18:18:08;32.60;19.60
3067;DHT22;1544;48.834;9.194;2022-08-07T18:21:08;32.20;19.70
3067;DHT22;1544;48.834;9.194;2022-08-07T18:24:34;32.00;20.00
3067;DHT22;1544;48.834;9.194;2022-08-07T18:30:22;31.30;20.10
3067;DHT22;1544;48.834;9.194;2022-08-07T18:33:24;30.90;20.10
3067;DHT22;1544;48.834;9.194;2022-08-07T18:36:20;30.70;20.20
3067;DHT22;1544;48.834;9.194;2022-08-07T18:42:48;30.10;20.40
3067;DHT22;1544;48.834;9.194;2022-08-07T18:46:27;29.80;20.50
3067;DHT22;1544;48.834;9.194;2022-08-07T18:55:49;29.10;20.90
3067;DHT22;1544;48.834;9.194;2022-08-07T19:01:40;28.70;21.20
3067;DHT22;1544;48.834;9.194;2022-08-07T19:04:39;28.50;21.20
3067;DHT22;1544;48.834;9.194;2022-08-07T19:07:51;28.30;21.30
3067;DHT22;1544;48.834;9.194;2022-08-07T19:10:47;28.10;21.40
3067;DHT22;1544;48.834;9.194;2022-08-07T19:13:45;27.90;21.50
3067;DHT22;1544;48.834;9.194;2022-08-07T19:16:32;27.70;21.80
3067;DHT22;1544;48.834;9.194;2022-08-07T19:19:52;27.60;21.70
3067;DHT22;1544;48.834;9.194;2022-08-07T19:23:00;27.40;21.80
3067;DHT22;1544;48.834;9.194;2022-08-07T19:25:52;27.30;21.90
3067;DHT22;1544;48.834;9.194;2022-08-07T19:28:51;27.10;21.90
3067;DHT22;1544;48.834;9.194;2022-08-07T19:31:52;27.00;22.30
3067;DHT22;1544;48.834;9.194;2022-08-07T19:34:59;26.80;22.10
3067;DHT22;1544;48.834;9.194;2022-08-07T19:37:33;26.60;22.10
3067;DHT22;1544;48.834;9.194;2022-08-07T19:40:27;26.50;22.20
3067;DHT22;1544;48.834;9.194;2022-08-07T19:43:10;26.40;22.30
3067;DHT22;1544;48.834;9.194;2022-08-07T19:46:03;26.20;22.30
3067;DHT22;1544;48.834;9.194;2022-08-07T19:48:46;26.10;22.30
3067;DHT22;1544;48.834;9.194;2022-08-07T19:51:24;26.00;22.40
3067;DHT22;1544;48.834;9.194;2022-08-07T19:54:18;25.90;22.60
3067;DHT22;1544;48.834;9.194;2022-08-07T19:57:16;25.80;22.60
3067;DHT22;1544;48.834;9.194;2022-08-07T20:00:14;25.70;22.70
3067;DHT22;1544;48.834;9.194;2022-08-07T20:03:13;25.50;22.80
3067;DHT22;1544;48.834;9.194;2022-08-07T20:06:05;25.40;22.90
3067;DHT22;1544;48.834;9.194;2022-08-07T20:08:47;25.30;23.10
3067;DHT22;1544;48.834;9.194;2022-08-07T20:11:20;25.20;23.10
3067;DHT22;1544;48.834;9.194;2022-08-07T20:14:20;25.10;23.20
3067;DHT22;1544;48.834;9.194;2022-08-07T20:17:03;25.00;23.30
3067;DHT22;1544;48.834;9.194;2022-08-07T20:19:35;24.90;23.30
3067;DHT22;1544;48.834;9.194;2022-08-07T20:22:28;24.80;23.30
3067;DHT22;1544;48.834;9.194;2022-08-07T20:25:06;24.70;23.50
3067;DHT22;1544;48.834;9.194;2022-08-07T20:27:49;24.70;23.50
3067;DHT22;1544;48.834;9.194;2022-08-07T20:30:34;24.60;23.60
3067;DHT22;1544;48.834;9.194;2022-08-07T20:33:10;24.40;23.60
3067;DHT22;1544;48.834;9.194;2022-08-07T20:36:06;24.30;23.60
3067;DHT22;1544;48.834;9.194;2022-08-07T20:38:41;24.20;23.70
3067;DHT22;1544;48.834;9.194;2022-08-07T20:41:31;24.20;23.80
3067;DHT22;1544;48.834;9.194;2022-08-07T20:44:08;24.10;23.80
3067;DHT22;1544;48.834;9.194;2022-08-07T20:46:44;24.00;23.90
3067;DHT22;1544;48.834;9.194;2022-08-07T20:49:17;23.90;23.90
3067;DHT22;1544;48.834;9.194;2022-08-07T20:52:16;23.80;23.90
3067;DHT22;1544;48.834;9.194;2022-08-07T20:54:54;23.70;24.00
3067;DHT22;1544;48.834;9.194;2022-08-07T20:57:33;23.60;24.00
3067;DHT22;1544;48.834;9.194;2022-08-07T21:00:18;23.50;24.40
3067;DHT22;1544;48.834;9.194;2022-08-07T21:02:52;23.40;24.10
3067;DHT22;1544;48.834;9.194;2022-08-07T21:05:48;23.30;24.10
3067;DHT22;1544;48.834;9.194;2022-08-07T21:11:19;23.20;24.60
3067;DHT22;1544;48.834;9.194;2022-08-07T21:14:17;23.10;24.40
3067;DHT22;1544;48.834;9.194;2022-08-07T21:17:09;23.00;24.40
3067;DHT22;1544;48.834;9.194;2022-08-07T21:20:04;22.90;24.60
3067;DHT22;1544;48.834;9.194;2022-08-07T21:22:49;22.80;24.80
3067;DHT22;1544;48.834;9.194;2022-08-07T21:28:17;22.60;24.90
3067;DHT22;1544;48.834;9.194;2022-08-07T21:37:45;22.20;25.00
3067;DHT22;1544;48.834;9.194;2022-08-07T21:40:50;22.10;25.20